createdAt,value
2023-02-23T00:01:56.042Z,10.10
2023-02-23T00:04:24.757Z,10.00
2023-02-23T00:06:53.493Z,10.00
2023-02-23T00:09:24.688Z,10.00
2023-02-23T00:11:54.466Z,9.90
2023-02-23T00:14:27.317Z,9.90
2023-02-23T00:16:56.099Z,9.90
2023-02-23T00:19:25.070Z,9.90
2023-02-23T00:21:54.253Z,9.90
2023-02-23T00:24:22.152Z,9.90
2023-02-23T00:26:51.711Z,9.90
2023-02-23T00:29:22.155Z,9.90
2023-02-23T00:31:50.980Z,9.90
2023-02-23T00:34:21.238Z,9.80
2023-02-23T00:36:56.550Z,9.90
2023-02-23T00:39:29.346Z,9.90
2023-02-23T00:42:02.854Z,9.80
2023-02-23T00:44:30.824Z,9.80
2023-02-23T00:46:58.223Z,9.80
2023-02-23T00:49:26.133Z,9.80
2023-02-23T00:51:53.859Z,9.80
2023-02-23T00:54:22.352Z,9.80
2023-02-23T00:56:50.672Z,9.90
2023-02-23T00:59:19.044Z,9.90
2023-02-23T01:01:46.678Z,9.90
2023-02-23T01:04:14.479Z,10.00
2023-02-23T01:06:42.706Z,10.00
2023-02-23T01:09:14.307Z,10.00
2023-02-23T01:11:41.854Z,10.00
2023-02-23T01:14:10.911Z,10.00
2023-02-23T01:16:39.035Z,10.00
2023-02-23T01:19:07.163Z,10.00
2023-02-23T01:21:37.832Z,10.10
2023-02-23T01:24:06.335Z,10.10
2023-02-23T01:26:41.620Z,10.10
2023-02-23T01:29:15.244Z,10.00
2023-02-23T01:31:46.256Z,10.10
2023-02-23T01:34:19.852Z,10.10
2023-02-23T01:36:47.463Z,10.10
2023-02-23T01:39:19.353Z,10.10
2023-02-23T01:41:46.966Z,10.10
2023-02-23T01:44:15.489Z,10.10
2023-02-23T01:46:46.781Z,10.10
2023-02-23T01:49:23.489Z,10.10
2023-02-23T01:52:07.620Z,10.20
2023-02-23T01:54:39.941Z,10.20
2023-02-23T01:57:11.362Z,10.20
2023-02-23T01:59:44.687Z,10.20
2023-02-23T02:02:13.501Z,10.20
2023-02-23T02:04:46.453Z,10.20
2023-02-23T02:07:18.216Z,10.20
2023-02-23T02:10:10.473Z,10.20
2023-02-23T02:12:46.651Z,10.30
2023-02-23T02:15:17.626Z,10.30
2023-02-23T02:18:09.262Z,10.30
2023-02-23T02:21:14.998Z,10.30
2023-02-23T02:24:10.351Z,10.30
2023-02-23T02:26:50.893Z,10.30
2023-02-23T02:29:52.463Z,10.40
2023-02-23T02:32:39.416Z,10.30
2023-02-23T02:35:18.934Z,10.30
2023-02-23T02:38:01.662Z,10.30
2023-02-23T02:40:55.065Z,10.40
2023-02-23T02:43:55.990Z,10.40
2023-02-23T02:46:34.276Z,10.40
2023-02-23T02:49:31.077Z,10.40
2023-02-23T02:52:20.791Z,10.50
2023-02-23T02:54:53.461Z,10.50
2023-02-23T02:57:25.256Z,10.40
2023-02-23T03:00:13.024Z,10.40
2023-02-23T03:02:59.594Z,10.40
2023-02-23T03:06:04.026Z,10.40
2023-02-23T03:08:56.232Z,10.30
2023-02-23T03:11:52.526Z,10.30
2023-02-23T03:14:55.011Z,10.40
2023-02-23T03:17:43.907Z,10.40
2023-02-23T03:20:40.161Z,10.20
2023-02-23T03:23:58.760Z,10.20
2023-02-23T03:26:56.030Z,10.20
2023-02-23T03:30:10.131Z,10.10
2023-02-23T03:33:09.231Z,10.10
2023-02-23T03:36:04.516Z,10.00
2023-02-23T03:39:11.950Z,9.90
2023-02-23T03:42:00.843Z,9.90
2023-02-23T03:44:52.144Z,9.80
2023-02-23T03:47:43.601Z,9.80
2023-02-23T03:50:39.689Z,9.80
2023-02-23T03:53:28.498Z,9.80
2023-02-23T03:56:16.905Z,9.80
2023-02-23T03:59:08.621Z,9.80
2023-02-23T04:01:57.230Z,9.80
2023-02-23T04:04:45.683Z,9.70
2023-02-23T04:07:36.882Z,9.70
2023-02-23T04:10:24.214Z,9.70
2023-02-23T04:13:16.460Z,9.70
2023-02-23T04:15:55.265Z,9.70
2023-02-23T04:18:34.910Z,9.60
2023-02-23T04:21:03.682Z,9.70
2023-02-23T04:23:31.550Z,9.70
2023-02-23T04:25:59.263Z,9.60
2023-02-23T04:28:27.942Z,9.60
2023-02-23T04:30:55.487Z,9.60
2023-02-23T04:33:24.114Z,9.60
2023-02-23T04:35:53.963Z,9.60
2023-02-23T04:38:22.206Z,9.50
2023-02-23T04:40:50.617Z,9.60
2023-02-23T04:43:18.172Z,9.60
2023-02-23T04:45:45.808Z,9.70
2023-02-23T04:48:13.221Z,9.70
2023-02-23T04:50:40.598Z,9.80
2023-02-23T04:53:08.004Z,9.70
2023-02-23T04:55:35.501Z,9.70
2023-02-23T04:58:03.709Z,9.70
2023-02-23T05:00:31.563Z,9.80
2023-02-23T05:02:59.000Z,9.90
2023-02-23T05:05:26.499Z,9.80
2023-02-23T05:07:55.084Z,9.90
2023-02-23T05:10:22.582Z,9.90
2023-02-23T05:12:50.061Z,9.90
2023-02-23T05:15:17.538Z,9.90
2023-02-23T05:17:44.995Z,10.00
2023-02-23T05:20:14.099Z,10.00
2023-02-23T05:22:41.846Z,10.00
2023-02-23T05:25:10.323Z,10.00
2023-02-23T05:27:38.223Z,10.10
2023-02-23T05:30:07.923Z,10.00
2023-02-23T05:32:35.676Z,9.90
2023-02-23T05:35:03.935Z,9.90
2023-02-23T05:37:31.415Z,9.90
2023-02-23T05:39:58.949Z,9.70
2023-02-23T05:42:26.496Z,9.60
2023-02-23T05:44:53.941Z,9.50
2023-02-23T05:47:21.526Z,9.50
2023-02-23T05:49:48.956Z,9.50
2023-02-23T05:52:16.332Z,9.50
2023-02-23T05:54:46.410Z,9.50
2023-02-23T05:57:17.311Z,9.50
2023-02-23T05:59:44.688Z,9.40
2023-02-23T06:02:12.202Z,9.40
2023-02-23T06:04:39.752Z,9.40
2023-02-23T06:07:07.861Z,9.40
2023-02-23T06:09:35.413Z,9.50
2023-02-23T06:12:02.771Z,9.50
2023-02-23T06:14:30.163Z,9.60
2023-02-23T06:16:58.580Z,9.70
2023-02-23T06:19:26.077Z,9.70
2023-02-23T06:21:53.477Z,9.80
2023-02-23T06:24:21.610Z,9.80
2023-02-23T06:26:48.993Z,9.90
2023-02-23T06:29:16.996Z,9.90
2023-02-23T06:31:44.622Z,9.90
2023-02-23T06:34:12.105Z,9.90
2023-02-23T06:36:39.553Z,9.90
2023-02-23T06:39:07.002Z,10.00
2023-02-23T06:41:35.767Z,10.10
2023-02-23T06:44:03.532Z,10.10
2023-02-23T06:46:31.055Z,10.10
2023-02-23T06:48:59.774Z,10.10
2023-02-23T06:51:27.174Z,10.10
2023-02-23T06:53:54.553Z,10.10
2023-02-23T06:56:22.014Z,10.20
2023-02-23T06:58:49.870Z,10.20
2023-02-23T07:01:19.005Z,10.20
2023-02-23T07:03:46.744Z,10.20
2023-02-23T07:06:14.183Z,10.20
2023-02-23T07:08:41.612Z,10.30
2023-02-23T07:11:10.900Z,10.30
2023-02-23T07:13:38.358Z,10.20
2023-02-23T07:16:06.808Z,10.20
2023-02-23T07:18:34.648Z,10.20
2023-02-23T07:21:02.060Z,10.20
2023-02-23T07:23:29.468Z,10.30
2023-02-23T07:25:56.846Z,10.30
2023-02-23T07:28:25.858Z,10.40
2023-02-23T07:30:57.154Z,10.40
2023-02-23T07:33:25.640Z,10.40
2023-02-23T07:35:53.055Z,10.40
2023-02-23T07:38:20.504Z,10.40
2023-02-23T07:40:52.963Z,10.50
2023-02-23T07:43:24.205Z,10.60
2023-02-23T07:45:51.840Z,10.60
2023-02-23T07:48:20.043Z,10.70
2023-02-23T07:50:49.084Z,10.70
2023-02-23T07:53:16.574Z,10.80
2023-02-23T07:55:43.989Z,10.80
2023-02-23T07:58:13.285Z,10.80
2023-02-23T08:00:40.787Z,10.80
2023-02-23T08:03:08.309Z,10.90
2023-02-23T08:05:36.744Z,11.10
2023-02-23T08:08:04.306Z,11.20
2023-02-23T08:10:31.965Z,11.30
2023-02-23T08:13:00.126Z,11.50
2023-02-23T08:15:27.544Z,11.60
2023-02-23T08:17:54.907Z,11.60
2023-02-23T08:20:22.361Z,11.70
2023-02-23T08:22:57.714Z,11.80
2023-02-23T08:25:25.640Z,11.80
2023-02-23T08:27:54.516Z,11.90
2023-02-23T08:30:23.611Z,12.00
2023-02-23T08:32:51.244Z,12.00
2023-02-23T08:35:20.256Z,12.10
2023-02-23T08:37:47.713Z,12.20
2023-02-23T08:40:20.755Z,12.40
2023-02-23T08:42:54.021Z,12.40
2023-02-23T08:45:21.446Z,12.40
2023-02-23T08:47:51.004Z,12.50
2023-02-23T08:50:19.839Z,12.70
2023-02-23T08:52:50.420Z,12.80
2023-02-23T08:55:23.037Z,12.80
2023-02-23T08:57:51.063Z,12.90
2023-02-23T09:00:19.078Z,13.10
2023-02-23T09:02:49.823Z,13.20
2023-02-23T09:05:17.845Z,13.30
2023-02-23T09:07:45.729Z,13.30
2023-02-23T09:10:15.669Z,13.40
2023-02-23T09:12:43.444Z,13.40
2023-02-23T09:15:11.451Z,13.30
2023-02-23T09:17:38.853Z,13.30
2023-02-23T09:20:06.825Z,13.40
2023-02-23T09:22:36.752Z,13.50
2023-02-23T09:25:05.040Z,13.50
2023-02-23T09:27:32.713Z,13.50
2023-02-23T09:30:00.159Z,13.50
2023-02-23T09:32:27.676Z,13.50
2023-02-23T09:34:55.177Z,13.50
2023-02-23T09:37:22.609Z,13.50
2023-02-23T09:39:49.958Z,13.40
2023-02-23T09:42:35.954Z,13.40
2023-02-23T09:45:07.613Z,13.50
2023-02-23T09:47:45.904Z,13.40
2023-02-23T09:50:23.492Z,13.40
2023-02-23T09:53:11.859Z,13.50
2023-02-23T09:55:41.006Z,13.40
2023-02-23T09:58:22.323Z,13.30
2023-02-23T10:01:09.221Z,13.50
2023-02-23T10:03:43.641Z,13.50
2023-02-23T10:06:17.071Z,13.50
2023-02-23T10:08:59.050Z,13.60
2023-02-23T10:11:43.009Z,13.60
2023-02-23T10:14:16.176Z,13.60
2023-02-23T10:17:05.932Z,13.70
2023-02-23T10:19:47.959Z,13.70
2023-02-23T10:22:16.383Z,13.60
2023-02-23T10:24:51.093Z,13.70
2023-02-23T10:27:21.341Z,13.80
2023-02-23T10:29:53.127Z,13.90
2023-02-23T10:32:22.284Z,14.00
2023-02-23T10:34:54.047Z,13.90
2023-02-23T10:37:22.376Z,13.90
2023-02-23T10:39:51.496Z,13.90
2023-02-23T10:42:28.916Z,14.00
2023-02-23T10:44:57.123Z,13.90
2023-02-23T10:47:34.867Z,13.90
2023-02-23T10:50:03.211Z,14.10
2023-02-23T10:52:46.888Z,14.10
2023-02-23T10:55:28.773Z,14.20
2023-02-23T10:58:22.757Z,14.20
2023-02-23T11:01:02.411Z,14.20
2023-02-23T11:03:37.945Z,14.20
2023-02-23T11:06:05.661Z,14.20
2023-02-23T11:08:39.525Z,14.20
2023-02-23T11:11:16.021Z,14.20
2023-02-23T11:13:46.656Z,14.10
2023-02-23T11:16:38.332Z,14.20
2023-02-23T11:19:19.110Z,14.20
2023-02-23T11:21:52.421Z,14.20
2023-02-23T11:24:30.926Z,14.20
2023-02-23T11:27:06.741Z,14.30
2023-02-23T11:29:35.817Z,14.40
2023-02-23T11:32:14.000Z,14.50
2023-02-23T11:34:43.526Z,14.60
2023-02-23T11:37:15.107Z,14.60
2023-02-23T11:39:51.896Z,14.70
2023-02-23T11:42:21.781Z,14.70
2023-02-23T11:45:04.756Z,14.80
2023-02-23T11:47:35.245Z,15.00
2023-02-23T11:50:04.045Z,15.00
2023-02-23T11:52:31.949Z,15.10
2023-02-23T11:55:02.890Z,14.90
2023-02-23T11:57:33.732Z,14.80
2023-02-23T12:00:21.166Z,14.90
2023-02-23T12:02:55.750Z,14.90
2023-02-23T12:05:29.492Z,15.10
2023-02-23T12:08:20.080Z,15.20
2023-02-23T12:10:55.589Z,15.20
2023-02-23T12:13:43.886Z,15.40
2023-02-23T12:16:11.296Z,15.40
2023-02-23T12:18:59.740Z,15.50
2023-02-23T12:21:39.697Z,15.60
2023-02-23T12:24:34.302Z,15.70
2023-02-23T12:27:15.263Z,15.70
2023-02-23T12:30:09.149Z,15.70
2023-02-23T12:33:26.003Z,15.90
2023-02-23T12:35:59.791Z,15.80
2023-02-23T12:38:51.855Z,15.90
2023-02-23T12:41:43.372Z,15.90
2023-02-23T12:44:36.407Z,16.10
2023-02-23T12:47:31.550Z,16.10
2023-02-23T12:50:13.461Z,16.10
2023-02-23T12:52:53.784Z,16.10
2023-02-23T12:55:38.413Z,16.20
2023-02-23T12:58:29.236Z,16.30
2023-02-23T13:01:05.757Z,16.20
2023-02-23T13:03:55.067Z,15.90
2023-02-23T13:06:50.677Z,15.70
2023-02-23T13:09:18.052Z,15.70
2023-02-23T13:11:57.615Z,15.80
2023-02-23T13:14:44.572Z,15.80
2023-02-23T13:17:33.011Z,15.80
2023-02-23T13:20:15.320Z,15.80
2023-02-23T13:23:02.912Z,15.80
2023-02-23T13:25:38.223Z,15.90
2023-02-23T13:28:14.045Z,16.00
2023-02-23T13:30:47.307Z,15.90
2023-02-23T13:33:43.662Z,15.80
2023-02-23T13:36:12.936Z,15.80
2023-02-23T13:39:17.800Z,15.60
2023-02-23T13:42:13.417Z,15.60
2023-02-23T13:44:49.275Z,15.50
2023-02-23T13:47:45.484Z,15.50
2023-02-23T13:50:22.596Z,15.40
2023-02-23T13:52:55.688Z,15.40
2023-02-23T13:55:25.905Z,15.40
2023-02-23T13:57:57.502Z,15.30
2023-02-23T14:00:24.992Z,15.20
2023-02-23T14:02:53.713Z,15.20
2023-02-23T14:05:27.807Z,15.20
2023-02-23T14:08:02.428Z,15.10
2023-02-23T14:10:40.927Z,15.00
2023-02-23T14:13:14.333Z,14.90
2023-02-23T14:15:53.699Z,14.90
2023-02-23T14:18:21.166Z,14.90
2023-02-23T14:20:51.284Z,14.80
2023-02-23T14:23:21.489Z,14.80
2023-02-23T14:26:08.879Z,14.70
2023-02-23T14:28:39.345Z,14.60
2023-02-23T14:31:12.962Z,14.70
2023-02-23T14:33:46.128Z,14.70
2023-02-23T14:36:22.366Z,14.60
2023-02-23T14:39:14.113Z,14.50
2023-02-23T14:41:53.271Z,14.40
2023-02-23T14:44:36.480Z,14.40
2023-02-23T14:47:21.535Z,14.40
2023-02-23T14:49:58.109Z,14.40
2023-02-23T14:52:29.017Z,14.40
2023-02-23T14:55:29.621Z,14.30
2023-02-23T14:57:58.169Z,14.30
2023-02-23T15:00:33.047Z,14.30
2023-02-23T15:03:02.035Z,14.30
2023-02-23T15:05:54.870Z,14.30
2023-02-23T15:08:24.961Z,14.20
2023-02-23T15:11:11.226Z,14.10
2023-02-23T15:13:43.657Z,14.10
2023-02-23T15:16:23.223Z,14.00
2023-02-23T15:18:51.783Z,14.00
2023-02-23T15:21:23.946Z,14.00
2023-02-23T15:24:03.057Z,14.00
2023-02-23T15:26:37.822Z,14.00
2023-02-23T15:29:13.499Z,14.00
2023-02-23T15:31:53.222Z,14.00
2023-02-23T15:34:29.991Z,14.00
2023-02-23T15:37:07.179Z,13.90
2023-02-23T15:39:54.847Z,13.90
2023-02-23T15:42:38.584Z,13.90
2023-02-23T15:45:19.918Z,13.90
2023-02-23T15:47:47.524Z,13.80
2023-02-23T15:50:36.227Z,13.80
2023-02-23T15:53:14.674Z,13.70
2023-02-23T15:55:43.506Z,13.70
2023-02-23T15:58:19.786Z,13.60
2023-02-23T16:00:59.516Z,13.50
2023-02-23T16:03:33.098Z,13.40
2023-02-23T16:06:17.501Z,13.40
2023-02-23T16:09:25.019Z,13.40
2023-02-23T16:12:02.017Z,13.30
2023-02-23T16:14:55.178Z,13.30
2023-02-23T16:17:39.983Z,13.20
2023-02-23T16:20:16.796Z,13.30
2023-02-23T16:22:54.791Z,13.20
2023-02-23T16:25:26.383Z,13.10
2023-02-23T16:28:09.498Z,13.00
2023-02-23T16:30:51.370Z,13.00
2023-02-23T16:33:23.371Z,13.00
2023-02-23T16:36:15.620Z,12.90
2023-02-23T16:39:01.291Z,12.90
2023-02-23T16:41:33.189Z,12.80
2023-02-23T16:44:03.232Z,12.80
2023-02-23T16:46:51.234Z,12.70
2023-02-23T16:49:18.672Z,12.70
2023-02-23T16:51:46.529Z,12.70
2023-02-23T16:54:13.990Z,12.60
2023-02-23T16:56:41.777Z,12.60
2023-02-23T16:59:14.556Z,12.50
2023-02-23T17:01:41.933Z,12.50
2023-02-23T17:04:19.552Z,12.50
2023-02-23T17:06:55.677Z,12.50
2023-02-23T17:09:24.295Z,12.40
2023-02-23T17:11:51.697Z,12.40
2023-02-23T17:14:28.333Z,12.30
2023-02-23T17:16:55.852Z,12.30
2023-02-23T17:19:24.673Z,12.20
2023-02-23T17:21:53.465Z,12.20
2023-02-23T17:24:25.854Z,12.10
2023-02-23T17:26:53.639Z,12.10
2023-02-23T17:29:21.007Z,12.10
2023-02-23T17:31:49.486Z,12.10
2023-02-23T17:34:17.050Z,12.10
2023-02-23T17:36:44.470Z,12.10
2023-02-23T17:39:14.222Z,12.10
2023-02-23T17:41:41.730Z,12.10
2023-02-23T17:44:09.317Z,12.10
2023-02-23T17:46:36.793Z,12.10
2023-02-23T17:49:04.593Z,12.10
2023-02-23T17:51:32.065Z,12.10
2023-02-23T17:53:59.508Z,12.00
2023-02-23T17:56:27.082Z,12.00
2023-02-23T17:58:54.463Z,12.00
2023-02-23T18:01:22.000Z,12.00
2023-02-23T18:03:51.405Z,12.00
2023-02-23T18:06:20.599Z,11.90
2023-02-23T18:08:50.525Z,11.90
2023-02-23T18:11:21.737Z,11.80
2023-02-23T18:13:52.402Z,11.70
2023-02-23T18:16:20.139Z,11.60
2023-02-23T18:18:49.094Z,11.50
2023-02-23T18:21:19.814Z,11.50
2023-02-23T18:23:48.174Z,11.40
2023-02-23T18:26:21.693Z,11.40
2023-02-23T18:28:49.339Z,11.30
2023-02-23T18:31:22.377Z,11.30
2023-02-23T18:33:53.066Z,11.20
2023-02-23T18:36:27.968Z,11.10
2023-02-23T18:38:57.705Z,11.00
2023-02-23T18:41:30.795Z,11.00
2023-02-23T18:44:02.780Z,11.00
2023-02-23T18:46:31.814Z,11.00
2023-02-23T18:48:59.811Z,10.90
2023-02-23T18:51:27.255Z,10.90
2023-02-23T18:53:54.816Z,10.90
2023-02-23T18:56:27.223Z,10.90
2023-02-23T18:58:57.892Z,10.70
2023-02-23T19:01:31.180Z,10.70
2023-02-23T19:04:00.637Z,10.70
2023-02-23T19:06:29.040Z,10.70
2023-02-23T19:09:01.332Z,10.80
2023-02-23T19:11:32.658Z,10.80
2023-02-23T19:14:03.714Z,10.80
2023-02-23T19:16:32.894Z,10.70
2023-02-23T19:19:01.726Z,10.70
2023-02-23T19:21:29.122Z,10.60
2023-02-23T19:23:58.209Z,10.60
2023-02-23T19:26:26.869Z,10.40
2023-02-23T19:28:54.369Z,10.40
2023-02-23T19:31:26.183Z,10.30
2023-02-23T19:33:56.186Z,10.40
2023-02-23T19:36:29.804Z,10.40
2023-02-23T19:39:15.572Z,10.40
2023-02-23T19:41:44.770Z,10.40
2023-02-23T19:44:12.195Z,10.40
2023-02-23T19:46:40.397Z,10.30
2023-02-23T19:49:10.636Z,10.30
2023-02-23T19:51:38.094Z,10.20
2023-02-23T19:54:06.794Z,10.20
2023-02-23T19:56:34.887Z,10.10
2023-02-23T19:59:02.435Z,10.10
2023-02-23T20:01:30.209Z,10.10
2023-02-23T20:04:02.528Z,10.00
2023-02-23T20:06:31.964Z,10.00
2023-02-23T20:09:00.383Z,10.00
2023-02-23T20:11:29.780Z,10.00
2023-02-23T20:13:57.777Z,9.90
2023-02-23T20:16:29.450Z,9.80
2023-02-23T20:18:57.874Z,9.80
2023-02-23T20:21:26.892Z,9.70
2023-02-23T20:23:55.825Z,9.70
2023-02-23T20:26:29.287Z,9.60
2023-02-23T20:28:57.928Z,9.60
2023-02-23T20:31:28.163Z,9.60
2023-02-23T20:33:58.437Z,9.60
2023-02-23T20:36:26.446Z,9.60
2023-02-23T20:38:56.713Z,9.60
2023-02-23T20:41:28.150Z,9.60
2023-02-23T20:43:56.364Z,9.60
2023-02-23T20:46:23.999Z,9.60
2023-02-23T20:48:51.555Z,9.60
2023-02-23T20:51:20.480Z,9.50
2023-02-23T20:53:49.145Z,9.50
2023-02-23T20:56:18.858Z,9.50
2023-02-23T20:58:46.758Z,9.60
2023-02-23T21:01:16.170Z,9.60
2023-02-23T21:03:43.625Z,9.80
2023-02-23T21:06:11.190Z,9.90
2023-02-23T21:08:40.031Z,10.00
2023-02-23T21:11:08.940Z,10.00
2023-02-23T21:13:36.946Z,10.00
2023-02-23T21:16:04.527Z,10.10
2023-02-23T21:18:31.976Z,10.10
2023-02-23T21:21:09.714Z,10.00
2023-02-23T21:23:39.972Z,10.00
2023-02-23T21:26:07.619Z,10.00
2023-02-23T21:28:35.586Z,10.00
2023-02-23T21:31:03.096Z,10.00
2023-02-23T21:33:30.626Z,10.00
2023-02-23T21:35:58.799Z,10.00
2023-02-23T21:38:26.381Z,10.00
2023-02-23T21:40:53.805Z,10.00
2023-02-23T21:43:23.084Z,10.00
2023-02-23T21:45:50.544Z,10.10
2023-02-23T21:48:17.902Z,10.10
2023-02-23T21:50:45.328Z,10.20
2023-02-23T21:53:12.709Z,10.20
2023-02-23T21:55:40.175Z,10.30
2023-02-23T21:58:07.831Z,10.40
2023-02-23T22:00:35.850Z,10.30
2023-02-23T22:03:03.680Z,10.40
2023-02-23T22:05:33.546Z,10.40
2023-02-23T22:08:00.939Z,10.40
2023-02-23T22:10:28.382Z,10.40
2023-02-23T22:12:56.777Z,10.40
2023-02-23T22:15:27.187Z,10.30
2023-02-23T22:17:55.823Z,10.20
2023-02-23T22:20:23.598Z,10.20
2023-02-23T22:22:51.331Z,10.10
2023-02-23T22:25:20.242Z,10.00
2023-02-23T22:27:48.255Z,10.00
2023-02-23T22:30:15.939Z,9.90
2023-02-23T22:32:43.930Z,9.90
2023-02-23T22:35:11.694Z,9.80
2023-02-23T22:37:39.254Z,9.80
2023-02-23T22:40:16.882Z,9.70
2023-02-23T22:42:48.422Z,9.60
2023-02-23T22:45:16.714Z,9.50
2023-02-23T22:47:44.239Z,9.40
2023-02-23T22:50:14.043Z,9.40
2023-02-23T22:52:43.103Z,9.40
2023-02-23T22:55:11.155Z,9.30
2023-02-23T22:57:39.927Z,9.20
2023-02-23T23:00:11.128Z,9.20
2023-02-23T23:02:38.815Z,9.20
2023-02-23T23:05:07.102Z,9.10
2023-02-23T23:07:34.779Z,9.00
2023-02-23T23:10:05.467Z,9.00
2023-02-23T23:12:34.516Z,9.00
2023-02-23T23:15:07.242Z,9.00
2023-02-23T23:17:34.667Z,8.90
2023-02-23T23:20:02.978Z,8.90
2023-02-23T23:22:33.243Z,8.80
2023-02-23T23:25:00.614Z,8.80
2023-02-23T23:27:29.099Z,8.80
2023-02-23T23:29:57.341Z,8.70
2023-02-23T23:32:27.625Z,8.70
2023-02-23T23:34:57.723Z,8.70
2023-02-23T23:37:29.142Z,8.70
2023-02-23T23:40:02.154Z,8.70
2023-02-23T23:42:29.608Z,8.70
2023-02-23T23:44:57.086Z,8.60
2023-02-23T23:47:24.749Z,8.60
2023-02-23T23:49:54.288Z,8.60
2023-02-23T23:52:21.819Z,8.70
2023-02-23T23:54:49.368Z,8.60
2023-02-23T23:57:17.432Z,8.60
2023-02-23T23:59:46.196Z,8.60
